createdAt,value
2023-05-21T00:02:00.240Z,6.32
2023-05-21T00:04:29.780Z,5.55
2023-05-21T00:06:57.093Z,6.78
2023-05-21T00:09:24.264Z,6.82
2023-05-21T00:11:51.324Z,5.70
2023-05-21T00:14:18.518Z,5.80
2023-05-21T00:16:47.124Z,4.30
2023-05-21T00:19:14.527Z,4.90
2023-05-21T00:21:41.692Z,6.50
2023-05-21T00:24:09.476Z,6.45
2023-05-21T00:26:36.599Z,4.00
2023-05-21T00:29:04.759Z,6.13
2023-05-21T00:31:32.305Z,6.35
2023-05-21T00:33:59.866Z,5.47
2023-05-21T00:36:26.935Z,6.40
2023-05-21T00:38:54.066Z,5.63
2023-05-21T00:41:23.280Z,5.82
2023-05-21T00:43:50.412Z,6.63
2023-05-21T00:46:19.699Z,5.13
2023-05-21T00:48:49.028Z,4.03
2023-05-21T00:51:17.008Z,4.50
2023-05-21T00:53:45.381Z,7.22
2023-05-21T00:56:12.845Z,5.53
2023-05-21T00:58:41.131Z,4.90
2023-05-21T01:01:13.857Z,4.68
2023-05-21T01:03:41.434Z,5.05
2023-05-21T01:06:09.871Z,5.90
2023-05-21T01:08:37.847Z,5.47
2023-05-21T01:11:06.490Z,4.85
2023-05-21T01:16:02.921Z,5.15
2023-05-21T01:18:30.281Z,6.15
2023-05-21T01:20:57.385Z,7.07
2023-05-21T01:23:24.944Z,4.78
2023-05-21T01:25:52.050Z,5.82
2023-05-21T01:28:19.220Z,6.00
2023-05-21T01:30:46.755Z,4.97
2023-05-21T01:33:25.866Z,6.47
2023-05-21T01:36:16.362Z,6.57
2023-05-21T01:38:51.428Z,5.57
2023-05-21T01:41:20.024Z,5.60
2023-05-21T01:46:29.142Z,9.63
2023-05-21T01:48:57.402Z,7.03
2023-05-21T01:51:26.127Z,5.05
2023-05-21T01:53:53.225Z,8.50
2023-05-21T01:56:23.163Z,9.02
2023-05-21T01:58:50.392Z,5.75
2023-05-21T02:01:17.574Z,6.07
2023-05-21T02:03:47.770Z,5.15
2023-05-21T02:06:14.985Z,5.43
2023-05-21T02:08:42.100Z,4.07
2023-05-21T02:11:10.274Z,4.13
2023-05-21T02:13:42.852Z,4.50
2023-05-21T02:16:14.957Z,3.85
2023-05-21T02:18:46.528Z,3.97
2023-05-21T02:21:13.843Z,6.03
2023-05-21T02:23:42.880Z,3.47
2023-05-21T02:26:10.202Z,6.60
2023-05-21T02:28:38.610Z,6.43
2023-05-21T02:31:06.042Z,4.25
2023-05-21T02:33:33.153Z,6.38
2023-05-21T02:36:00.268Z,5.15
2023-05-21T02:38:27.544Z,4.80
2023-05-21T02:40:54.646Z,4.95
2023-05-21T02:43:21.908Z,5.45
2023-05-21T02:45:49.147Z,6.30
2023-05-21T02:48:16.390Z,4.78
2023-05-21T02:50:44.465Z,6.97
2023-05-21T02:53:12.545Z,6.70
2023-05-21T02:55:40.362Z,5.00
2023-05-21T02:58:07.420Z,7.57
2023-05-21T03:00:34.612Z,5.68
2023-05-21T03:03:01.876Z,5.43
2023-05-21T03:05:29.161Z,8.27
2023-05-21T03:07:56.606Z,5.88
2023-05-21T03:10:23.685Z,6.20
2023-05-21T03:12:51.066Z,7.07
2023-05-21T03:15:23.945Z,4.05
2023-05-21T03:17:54.406Z,6.80
2023-05-21T03:20:23.594Z,5.72
2023-05-21T03:22:50.715Z,5.60
2023-05-21T03:25:18.943Z,6.93
2023-05-21T03:27:46.087Z,6.75
2023-05-21T03:30:29.944Z,5.82
2023-05-21T03:33:33.647Z,7.55
2023-05-21T03:36:04.821Z,5.72
2023-05-21T03:38:37.148Z,7.40
2023-05-21T03:41:05.279Z,5.45
2023-05-21T03:43:32.619Z,8.88
2023-05-21T03:45:59.791Z,5.47
2023-05-21T03:48:45.988Z,5.15
2023-05-21T03:51:18.108Z,7.53
2023-05-21T03:53:45.368Z,5.68
2023-05-21T03:56:12.995Z,6.32
2023-05-21T03:58:41.537Z,4.00
2023-05-21T04:01:09.089Z,6.68
2023-05-21T04:03:40.005Z,7.78
2023-05-21T04:06:10.347Z,8.82
2023-05-21T04:08:39.745Z,4.63
2023-05-21T04:11:06.994Z,7.30
2023-05-21T04:13:34.218Z,5.35
2023-05-21T04:16:01.363Z,7.57
2023-05-21T04:18:29.269Z,5.38
2023-05-21T04:20:56.560Z,5.47
2023-05-21T04:23:24.009Z,4.72
2023-05-21T04:25:53.100Z,5.32
2023-05-21T04:28:21.270Z,5.22
2023-05-21T04:30:49.988Z,6.35
2023-05-21T04:33:20.362Z,4.72
2023-05-21T04:35:50.387Z,4.57
2023-05-21T04:38:21.556Z,6.35
2023-05-21T04:40:53.636Z,6.60
2023-05-21T04:43:25.919Z,3.78
2023-05-21T04:45:57.555Z,4.50
2023-05-21T04:48:27.226Z,4.95
2023-05-21T04:50:56.008Z,6.55
2023-05-21T04:53:26.210Z,6.95
2023-05-21T04:55:53.751Z,7.45
2023-05-21T04:58:21.290Z,5.35
2023-05-21T05:00:51.132Z,5.43
2023-05-21T05:03:18.609Z,4.75
2023-05-21T05:05:46.213Z,5.40
2023-05-21T05:08:15.583Z,5.10
2023-05-21T05:10:43.428Z,3.83
2023-05-21T05:13:10.695Z,5.50
2023-05-21T05:15:38.218Z,4.50
2023-05-21T05:18:08.703Z,6.23
2023-05-21T05:20:36.357Z,4.05
2023-05-21T05:23:03.593Z,7.45
2023-05-21T05:25:31.040Z,4.70
2023-05-21T05:27:58.615Z,5.97
2023-05-21T05:30:25.851Z,5.30
2023-05-21T05:32:56.802Z,6.38
2023-05-21T05:35:24.005Z,4.38
2023-05-21T05:37:51.068Z,5.55
2023-05-21T05:40:18.171Z,6.70
2023-05-21T05:42:45.406Z,4.95
2023-05-21T05:45:15.940Z,5.47
2023-05-21T05:47:43.085Z,6.40
2023-05-21T05:50:10.497Z,4.75
2023-05-21T05:52:37.849Z,5.10
2023-05-21T05:55:05.548Z,4.47
2023-05-21T05:57:32.665Z,5.60
2023-05-21T06:00:05.681Z,4.60
2023-05-21T06:02:39.387Z,5.43
2023-05-21T06:05:07.348Z,5.55
2023-05-21T06:10:03.586Z,5.10
2023-05-21T06:12:30.902Z,4.97
2023-05-21T06:14:58.152Z,6.25
2023-05-21T06:17:25.568Z,7.72
2023-05-21T06:19:53.861Z,5.30
2023-05-21T06:22:23.047Z,5.55
2023-05-21T06:24:51.773Z,6.28
2023-05-21T06:27:19.049Z,7.13
2023-05-21T06:29:46.326Z,5.25
2023-05-21T06:32:13.984Z,5.35
2023-05-21T06:37:09.081Z,5.15
2023-05-21T06:39:36.235Z,3.95
2023-05-21T06:42:03.839Z,5.55
2023-05-21T06:44:49.716Z,3.97
2023-05-21T06:47:23.312Z,3.78
2023-05-21T06:49:50.600Z,4.93
2023-05-21T06:52:17.754Z,3.67
2023-05-21T06:54:45.181Z,2.50
2023-05-21T06:57:12.345Z,3.30
2023-05-21T06:59:39.491Z,3.45
2023-05-21T07:02:07.073Z,2.13
2023-05-21T07:04:35.348Z,2.47
2023-05-21T07:07:04.974Z,2.65
2023-05-21T07:09:32.357Z,3.17
2023-05-21T07:11:59.685Z,3.08
2023-05-21T07:14:26.946Z,3.58
2023-05-21T07:16:54.562Z,3.90
2023-05-21T07:19:21.743Z,2.55
2023-05-21T07:21:50.100Z,6.47
2023-05-21T07:24:17.230Z,3.67
2023-05-21T07:26:44.520Z,3.90
2023-05-21T07:29:13.288Z,5.38
2023-05-21T07:31:41.041Z,4.47
2023-05-21T07:34:08.147Z,3.78
2023-05-21T07:36:35.477Z,3.17
2023-05-21T07:39:03.816Z,4.47
2023-05-21T07:41:31.372Z,4.30
2023-05-21T07:44:03.062Z,5.40
2023-05-21T07:46:32.507Z,4.45
2023-05-21T07:48:59.840Z,5.18
2023-05-21T07:51:28.161Z,4.95
2023-05-21T07:53:56.652Z,2.72
2023-05-21T07:56:32.733Z,4.13
2023-05-21T07:59:00.279Z,3.42
2023-05-21T08:01:29.672Z,5.35
2023-05-21T08:04:00.889Z,4.07
2023-05-21T08:06:28.269Z,3.70
2023-05-21T08:08:55.406Z,3.08
2023-05-21T08:11:23.427Z,2.33
2023-05-21T08:13:50.689Z,2.03
2023-05-21T08:16:17.838Z,2.63
2023-05-21T08:18:44.982Z,2.00
2023-05-21T08:21:12.376Z,3.17
2023-05-21T08:23:40.524Z,2.38
2023-05-21T08:26:08.573Z,2.95
2023-05-21T08:28:39.149Z,3.33
2023-05-21T08:31:06.558Z,2.15
2023-05-21T08:33:38.360Z,2.83
2023-05-21T08:36:07.297Z,2.13
2023-05-21T08:38:41.903Z,1.42
2023-05-21T08:41:14.866Z,1.95
2023-05-21T08:43:48.593Z,2.75
2023-05-21T08:46:21.883Z,2.55
2023-05-21T08:48:50.380Z,2.03
2023-05-21T08:51:18.362Z,1.63
2023-05-21T08:53:50.880Z,2.97
2023-05-21T08:56:21.288Z,2.00
2023-05-21T08:58:54.136Z,4.05
2023-05-21T09:01:26.314Z,2.70
2023-05-21T09:04:20.234Z,2.90
2023-05-21T09:06:52.140Z,3.05
2023-05-21T09:09:38.662Z,4.78
2023-05-21T09:12:06.288Z,2.93
2023-05-21T09:14:38.583Z,2.70
2023-05-21T09:17:16.563Z,2.22
2023-05-21T09:20:15.366Z,1.75
2023-05-21T09:22:50.630Z,3.25
2023-05-21T09:25:22.937Z,2.42
2023-05-21T09:27:51.469Z,3.85
2023-05-21T09:30:22.585Z,2.28
2023-05-21T09:33:05.823Z,2.13
2023-05-21T09:35:34.534Z,2.42
2023-05-21T09:38:08.461Z,3.70
2023-05-21T09:40:35.996Z,2.38
2023-05-21T09:43:03.370Z,2.63
2023-05-21T09:45:30.606Z,6.15
2023-05-21T09:47:59.264Z,5.15
2023-05-21T09:50:31.542Z,8.35
2023-05-21T09:52:58.692Z,2.67
2023-05-21T09:55:27.115Z,4.00
2023-05-21T10:00:23.170Z,4.90
2023-05-21T10:03:11.621Z,3.38
2023-05-21T10:05:39.269Z,4.13
2023-05-21T10:08:09.242Z,2.93
2023-05-21T10:10:39.073Z,3.15
2023-05-21T10:13:09.202Z,4.03
2023-05-21T10:15:44.184Z,3.97
2023-05-21T10:18:21.220Z,3.50
2023-05-21T10:20:49.582Z,4.65
2023-05-21T10:23:19.659Z,4.03
2023-05-21T10:25:47.439Z,2.60
2023-05-21T10:28:19.297Z,4.35
2023-05-21T10:30:46.899Z,3.00
2023-05-21T10:33:16.822Z,4.68
2023-05-21T10:35:47.045Z,2.80
2023-05-21T10:38:20.404Z,2.45
2023-05-21T10:40:49.181Z,3.05
2023-05-21T10:43:40.947Z,3.08
2023-05-21T10:46:15.884Z,3.15
2023-05-21T10:49:01.629Z,2.42
2023-05-21T10:51:56.379Z,2.92
2023-05-21T10:54:54.490Z,4.22
2023-05-21T10:57:53.480Z,6.30
2023-05-21T11:00:21.349Z,5.22
2023-05-21T11:05:16.066Z,3.58
2023-05-21T11:07:59.124Z,3.13
2023-05-21T11:10:40.678Z,2.63
2023-05-21T11:13:08.952Z,3.17
2023-05-21T11:18:21.889Z,3.30
2023-05-21T11:20:52.048Z,2.30
2023-05-21T11:23:21.185Z,2.20
2023-05-21T11:26:04.884Z,5.78
2023-05-21T11:28:35.168Z,2.35
2023-05-21T11:31:27.699Z,2.50
2023-05-21T11:34:15.077Z,1.98
2023-05-21T11:36:46.879Z,1.92
2023-05-21T11:39:21.973Z,2.75
2023-05-21T11:42:03.068Z,2.70
2023-05-21T11:44:41.943Z,2.25
2023-05-21T11:47:11.152Z,2.03
2023-05-21T11:49:39.385Z,2.00
2023-05-21T11:52:08.544Z,2.88
2023-05-21T11:54:46.478Z,3.42
2023-05-21T11:57:17.423Z,2.35
2023-05-21T11:59:45.770Z,1.92
2023-05-21T12:02:17.626Z,1.92
2023-05-21T12:04:46.383Z,2.97
2023-05-21T12:07:15.225Z,2.08
2023-05-21T12:09:44.028Z,1.75
2023-05-21T12:12:15.990Z,2.78
2023-05-21T12:14:48.166Z,1.92
2023-05-21T12:17:23.116Z,2.33
2023-05-21T12:19:56.693Z,2.55
2023-05-21T12:22:25.299Z,2.10
2023-05-21T12:24:53.929Z,2.03
2023-05-21T12:27:22.604Z,2.80
2023-05-21T12:29:53.941Z,2.10
2023-05-21T12:32:21.976Z,2.10
2023-05-21T12:34:54.908Z,2.08
2023-05-21T12:37:23.326Z,2.60
2023-05-21T12:39:52.736Z,3.35
2023-05-21T12:42:27.801Z,2.90
2023-05-21T12:44:58.301Z,2.97
2023-05-21T12:47:27.190Z,3.67
2023-05-21T12:49:58.076Z,4.25
2023-05-21T12:52:27.279Z,2.58
2023-05-21T12:54:59.023Z,2.45
2023-05-21T12:57:37.306Z,2.38
2023-05-21T13:00:11.353Z,3.38
2023-05-21T13:02:44.981Z,1.70
2023-05-21T13:05:19.944Z,2.95
2023-05-21T13:07:48.022Z,3.63
2023-05-21T13:10:18.702Z,3.33
2023-05-21T13:12:46.352Z,2.58
2023-05-21T13:15:14.466Z,2.22
2023-05-21T13:17:41.657Z,1.80
2023-05-21T13:20:16.851Z,2.67
2023-05-21T13:22:54.092Z,3.80
2023-05-21T13:25:25.019Z,1.70
2023-05-21T13:27:53.452Z,2.42
2023-05-21T13:30:22.101Z,2.45
2023-05-21T13:32:49.690Z,2.25
2023-05-21T13:35:17.285Z,2.30
2023-05-21T13:37:45.034Z,2.30
2023-05-21T13:42:44.340Z,2.20
2023-05-21T13:45:13.041Z,2.25
2023-05-21T13:47:40.847Z,2.30
2023-05-21T13:55:03.532Z,1.95
2023-05-21T13:57:31.143Z,1.92
2023-05-21T13:59:59.527Z,3.38
2023-05-21T14:02:26.874Z,1.83
2023-05-21T14:04:54.230Z,3.72
2023-05-21T14:07:22.248Z,1.50
2023-05-21T14:09:49.964Z,2.15
2023-05-21T14:12:17.328Z,3.75
2023-05-21T14:14:44.734Z,1.77
2023-05-21T14:17:11.920Z,1.85
2023-05-21T14:19:38.950Z,2.17
2023-05-21T14:22:05.953Z,2.63
2023-05-21T14:24:33.102Z,2.05
2023-05-21T14:27:00.234Z,1.58
2023-05-21T14:29:27.630Z,3.13
2023-05-21T14:31:54.775Z,1.93
2023-05-21T14:34:21.987Z,3.50
2023-05-21T14:36:49.022Z,1.67
2023-05-21T14:39:16.141Z,3.15
2023-05-21T14:41:43.260Z,1.98
2023-05-21T14:44:10.521Z,1.75
2023-05-21T14:46:39.617Z,1.57
2023-05-21T14:49:07.262Z,1.63
2023-05-21T14:51:34.305Z,3.00
2023-05-21T14:54:01.342Z,1.92
2023-05-21T14:56:28.499Z,3.13
2023-05-21T14:58:56.397Z,2.15
2023-05-21T15:01:23.882Z,2.28
2023-05-21T15:03:51.283Z,2.90
2023-05-21T15:06:18.598Z,1.80
2023-05-21T15:08:45.693Z,3.00
2023-05-21T15:11:12.762Z,2.42
2023-05-21T15:13:39.847Z,3.85
2023-05-21T15:16:07.312Z,3.28
2023-05-21T15:18:34.500Z,2.28
2023-05-21T15:21:01.648Z,2.90
2023-05-21T15:23:28.741Z,3.03
2023-05-21T15:25:56.045Z,2.53
2023-05-21T15:28:23.189Z,2.28
2023-05-21T15:30:50.538Z,2.35
2023-05-21T15:33:17.757Z,3.83
2023-05-21T15:35:45.349Z,4.90
2023-05-21T15:38:12.772Z,3.47
2023-05-21T15:40:42.113Z,2.60
2023-05-21T15:43:09.386Z,4.40
2023-05-21T15:45:36.894Z,2.80
2023-05-21T15:48:04.725Z,2.33
2023-05-21T15:50:31.922Z,2.42
2023-05-21T15:52:59.056Z,2.55
2023-05-21T15:55:26.126Z,3.55
2023-05-21T15:57:53.141Z,3.38
2023-05-21T16:00:20.241Z,2.60
2023-05-21T16:02:47.638Z,4.25
2023-05-21T16:05:14.753Z,3.70
2023-05-21T16:07:41.843Z,2.42
2023-05-21T16:10:10.706Z,6.25
2023-05-21T16:12:38.681Z,4.05
2023-05-21T16:15:06.805Z,3.70
2023-05-21T16:17:33.964Z,5.82
2023-05-21T16:20:01.058Z,5.22
2023-05-21T16:22:28.217Z,2.42
2023-05-21T16:24:55.798Z,4.20
2023-05-21T16:27:22.958Z,3.83
2023-05-21T16:29:50.129Z,4.40
2023-05-21T16:32:17.331Z,3.97
2023-05-21T16:34:44.560Z,4.25
2023-05-21T16:37:11.925Z,3.88
2023-05-21T16:39:39.225Z,4.65
2023-05-21T16:42:06.498Z,3.65
2023-05-21T16:44:33.697Z,4.32
2023-05-21T16:47:02.036Z,5.70
2023-05-21T16:51:56.327Z,3.00
2023-05-21T16:54:23.523Z,4.03
2023-05-21T16:56:50.685Z,3.78
2023-05-21T16:59:17.861Z,5.32
2023-05-21T17:01:45.019Z,3.50
2023-05-21T17:04:12.211Z,3.65
2023-05-21T17:06:39.296Z,3.33
2023-05-21T17:09:06.864Z,2.45
2023-05-21T17:11:35.177Z,3.08
2023-05-21T17:14:02.265Z,2.17
2023-05-21T17:16:29.514Z,4.68
2023-05-21T17:18:56.682Z,3.55
2023-05-21T17:21:24.066Z,3.80
2023-05-21T17:23:51.188Z,3.17
2023-05-21T17:26:18.291Z,3.13
2023-05-21T17:28:45.459Z,3.63
2023-05-21T17:31:12.615Z,3.15
2023-05-21T17:33:39.780Z,4.07
2023-05-21T17:36:07.051Z,4.55
2023-05-21T17:38:34.146Z,2.95
2023-05-21T17:41:01.290Z,2.60
2023-05-21T17:43:28.409Z,2.83
2023-05-21T17:45:55.487Z,3.55
2023-05-21T17:48:22.611Z,3.40
2023-05-21T17:50:49.775Z,3.45
2023-05-21T17:53:16.898Z,6.30
2023-05-21T17:55:44.082Z,4.97
2023-05-21T17:58:11.246Z,4.43
2023-05-21T18:00:38.448Z,4.57
2023-05-21T18:03:05.842Z,7.10
2023-05-21T18:05:32.978Z,6.35
2023-05-21T18:08:01.429Z,5.60
2023-05-21T18:10:29.420Z,7.45
2023-05-21T18:12:56.474Z,4.57
2023-05-21T18:15:23.642Z,4.32
2023-05-21T18:17:50.837Z,2.92
2023-05-21T18:20:18.216Z,2.95
2023-05-21T18:22:45.578Z,4.28
2023-05-21T18:25:12.735Z,4.20
2023-05-21T18:27:40.015Z,4.03
2023-05-21T18:30:08.562Z,3.60
2023-05-21T18:32:38.964Z,3.85
2023-05-21T18:35:13.777Z,4.00
2023-05-21T18:37:44.414Z,2.97
2023-05-21T18:40:13.180Z,4.50
2023-05-21T18:42:40.686Z,6.05
2023-05-21T18:45:09.244Z,6.03
2023-05-21T18:47:36.755Z,5.35
2023-05-21T18:50:04.074Z,4.22
2023-05-21T18:52:31.110Z,5.03
2023-05-21T18:54:58.184Z,4.13
2023-05-21T18:57:25.283Z,4.10
2023-05-21T18:59:52.423Z,4.25
2023-05-21T19:02:19.701Z,3.25
2023-05-21T19:04:46.900Z,3.58
2023-05-21T19:07:15.931Z,3.33
2023-05-21T19:09:43.089Z,3.35
2023-05-21T19:12:10.322Z,3.75
2023-05-21T19:14:37.779Z,4.15
2023-05-21T19:17:05.069Z,3.55
2023-05-21T19:19:32.261Z,3.03
2023-05-21T19:21:59.430Z,3.85
2023-05-21T19:24:26.521Z,3.35
2023-05-21T19:26:56.668Z,4.22
2023-05-21T19:29:24.177Z,3.13
2023-05-21T19:31:54.998Z,3.85
2023-05-21T19:34:26.242Z,3.47
2023-05-21T19:36:54.121Z,3.65
2023-05-21T19:39:21.962Z,3.28
2023-05-21T19:41:49.350Z,5.60
2023-05-21T19:44:17.355Z,4.88
2023-05-21T19:46:44.640Z,5.03
2023-05-21T19:49:14.127Z,3.58
2023-05-21T19:51:41.471Z,2.92
2023-05-21T19:54:08.486Z,3.75
2023-05-21T19:56:35.633Z,3.85
2023-05-21T19:59:02.881Z,4.28
2023-05-21T20:01:33.297Z,3.50
2023-05-21T20:04:00.834Z,3.72
2023-05-21T20:06:28.006Z,3.47
2023-05-21T20:08:55.176Z,3.63
2023-05-21T20:11:22.335Z,3.75
2023-05-21T20:13:50.628Z,3.78
2023-05-21T20:16:20.449Z,5.80
2023-05-21T20:18:47.938Z,4.15
2023-05-21T20:21:22.830Z,3.50
2023-05-21T20:23:50.666Z,4.00
2023-05-21T20:26:19.087Z,5.00
2023-05-21T20:31:13.626Z,6.03
2023-05-21T20:33:43.508Z,5.72
2023-05-21T20:36:11.132Z,7.50
2023-05-21T20:38:38.534Z,5.23
2023-05-21T20:41:06.012Z,5.70
2023-05-21T20:43:33.805Z,6.45
2023-05-21T20:46:00.959Z,6.60
2023-05-21T20:48:29.774Z,6.43
2023-05-21T20:50:57.699Z,4.60
2023-05-21T20:53:26.111Z,3.60
2023-05-21T20:58:24.123Z,5.18
2023-05-21T21:00:51.429Z,4.85
2023-05-21T21:03:21.703Z,4.28
2023-05-21T21:05:49.427Z,3.38
2023-05-21T21:08:16.852Z,3.58
2023-05-21T21:10:46.951Z,5.13
2023-05-21T21:13:14.766Z,4.72
2023-05-21T21:15:43.965Z,5.50
2023-05-21T21:18:12.572Z,5.90
2023-05-21T21:20:41.450Z,7.07
2023-05-21T21:23:09.015Z,6.07
2023-05-21T21:25:36.503Z,5.18
2023-05-21T21:28:03.720Z,4.18
2023-05-21T21:30:30.934Z,6.07
2023-05-21T21:32:58.172Z,4.70
2023-05-21T21:35:25.258Z,6.18
2023-05-21T21:37:52.461Z,6.80
2023-05-21T21:40:19.499Z,4.10
2023-05-21T21:42:46.875Z,5.60
2023-05-21T21:45:14.103Z,5.53
2023-05-21T21:47:41.412Z,5.20
2023-05-21T21:50:08.831Z,4.25
2023-05-21T21:52:39.997Z,3.35
2023-05-21T21:55:10.919Z,3.45
2023-05-21T21:57:39.718Z,5.82
2023-05-21T22:00:15.945Z,3.65
2023-05-21T22:02:43.897Z,5.03
2023-05-21T22:05:14.812Z,5.10
2023-05-21T22:07:46.722Z,5.18
2023-05-21T22:10:15.289Z,5.00
2023-05-21T22:15:18.103Z,4.10
2023-05-21T22:17:45.955Z,4.47
2023-05-21T22:20:13.176Z,4.75
2023-05-21T22:22:40.179Z,4.40
2023-05-21T22:25:10.505Z,6.45
2023-05-21T22:27:38.010Z,3.85
2023-05-21T22:30:06.347Z,5.43
2023-05-21T22:35:00.740Z,4.47
2023-05-21T22:37:28.057Z,4.32
2023-05-21T22:39:55.710Z,4.07
2023-05-21T22:42:23.563Z,4.43
2023-05-21T22:44:52.243Z,5.32
2023-05-21T22:47:23.846Z,4.25
2023-05-21T22:49:53.948Z,4.90
2023-05-21T22:52:24.103Z,3.50
2023-05-21T22:54:54.684Z,4.57
2023-05-21T22:57:22.298Z,4.25
2023-05-21T22:59:49.842Z,4.87
2023-05-21T23:02:17.636Z,3.97
2023-05-21T23:04:44.879Z,5.97
2023-05-21T23:07:12.620Z,5.07
2023-05-21T23:09:42.494Z,3.63
2023-05-21T23:12:10.200Z,4.05
2023-05-21T23:14:37.188Z,3.40
2023-05-21T23:17:04.649Z,3.15
2023-05-21T23:19:33.027Z,4.43
2023-05-21T23:24:29.539Z,4.43
2023-05-21T23:27:02.100Z,2.85
2023-05-21T23:29:31.236Z,3.38
2023-05-21T23:31:58.610Z,3.33
2023-05-21T23:34:25.941Z,3.13
2023-05-21T23:36:53.486Z,4.30
2023-05-21T23:39:51.788Z,3.67
2023-05-21T23:42:26.578Z,6.35
2023-05-21T23:44:53.551Z,4.35
2023-05-21T23:47:20.988Z,4.53
2023-05-21T23:49:48.305Z,3.55
2023-05-21T23:52:18.343Z,2.42
2023-05-21T23:54:45.648Z,2.85
2023-05-21T23:57:13.426Z,5.35
2023-05-21T23:59:40.747Z,3.20
